sensor_id;sensor_type;location;lat;lon;timestamp;pressure;altitude;pressure_sealevel;temperature;humidity
48555;BME280;34336;48.270;16.716;2023-04-19T00:01:50;109325.25;;;18.16;79.93
48555;BME280;34336;48.270;16.716;2023-04-19T00:04:17;109325.25;;;18.16;79.69
48555;BME280;34336;48.270;16.716;2023-04-19T00:06:44;109325.25;;;18.16;80.02
48555;BME280;34336;48.270;16.716;2023-04-19T00:09:12;109325.25;;;18.16;80.44
48555;BME280;34336;48.270;16.716;2023-04-19T00:11:39;109325.25;;;18.16;80.43
48555;BME280;34336;48.270;16.716;2023-04-19T00:14:06;109325.25;;;18.16;80.46
48555;BME280;34336;48.270;16.716;2023-04-19T00:16:33;109325.25;;;18.16;80.31
48555;BME280;34336;48.270;16.716;2023-04-19T00:18:59;109325.25;;;18.16;80.33
48555;BME280;34336;48.270;16.716;2023-04-19T00:21:27;109325.25;;;18.16;80.47
48555;BME280;34336;48.270;16.716;2023-04-19T00:23:53;109325.25;;;18.16;80.41
48555;BME280;34336;48.270;16.716;2023-04-19T00:26:20;109325.25;;;18.16;80.59
48555;BME280;34336;48.270;16.716;2023-04-19T00:28:50;109325.25;;;18.16;80.75
48555;BME280;34336;48.270;16.716;2023-04-19T00:31:17;109325.25;;;18.16;80.67
48555;BME280;34336;48.270;16.716;2023-04-19T00:33:43;109325.25;;;18.16;80.91
48555;BME280;34336;48.270;16.716;2023-04-19T00:36:10;109325.25;;;18.16;80.81
48555;BME280;34336;48.270;16.716;2023-04-19T00:38:37;109325.25;;;18.16;81.40
48555;BME280;34336;48.270;16.716;2023-04-19T00:41:04;109325.25;;;18.16;81.73
48555;BME280;34336;48.270;16.716;2023-04-19T00:43:30;109325.25;;;18.16;81.99
48555;BME280;34336;48.270;16.716;2023-04-19T00:45:59;109325.25;;;18.16;82.29
48555;BME280;34336;48.270;16.716;2023-04-19T00:48:26;109325.25;;;18.16;82.36
48555;BME280;34336;48.270;16.716;2023-04-19T00:50:52;109325.25;;;18.16;82.84
48555;BME280;34336;48.270;16.716;2023-04-19T00:53:19;109325.25;;;18.16;82.81
48555;BME280;34336;48.270;16.716;2023-04-19T00:55:45;109325.25;;;18.16;83.16
48555;BME280;34336;48.270;16.716;2023-04-19T00:58:12;109325.25;;;18.16;83.37
48555;BME280;34336;48.270;16.716;2023-04-19T01:00:40;109325.25;;;18.16;83.84
48555;BME280;34336;48.270;16.716;2023-04-19T01:03:07;109325.25;;;18.16;83.94
48555;BME280;34336;48.270;16.716;2023-04-19T01:05:34;109325.25;;;18.16;84.37
48555;BME280;34336;48.270;16.716;2023-04-19T01:08:01;109325.25;;;18.16;84.55
48555;BME280;34336;48.270;16.716;2023-04-19T01:10:28;109325.25;;;18.16;84.50
48555;BME280;34336;48.270;16.716;2023-04-19T01:12:55;109325.25;;;18.16;84.44
48555;BME280;34336;48.270;16.716;2023-04-19T01:15:22;109325.25;;;18.16;84.47
48555;BME280;34336;48.270;16.716;2023-04-19T01:17:48;109325.25;;;18.16;85.18
48555;BME280;34336;48.270;16.716;2023-04-19T01:20:15;109325.25;;;18.16;85.68
48555;BME280;34336;48.270;16.716;2023-04-19T01:22:43;109325.25;;;18.16;85.69
48555;BME280;34336;48.270;16.716;2023-04-19T01:25:12;109325.25;;;18.16;86.51
48555;BME280;34336;48.270;16.716;2023-04-19T01:27:41;109325.25;;;18.16;86.53
48555;BME280;34336;48.270;16.716;2023-04-19T01:30:08;109325.25;;;18.16;86.48
48555;BME280;34336;48.270;16.716;2023-04-19T01:32:34;109325.25;;;18.16;87.21
48555;BME280;34336;48.270;16.716;2023-04-19T01:35:01;109325.25;;;18.16;87.40
48555;BME280;34336;48.270;16.716;2023-04-19T01:37:28;109325.25;;;18.16;87.22
48555;BME280;34336;48.270;16.716;2023-04-19T01:39:55;109325.25;;;18.16;87.40
48555;BME280;34336;48.270;16.716;2023-04-19T01:42:22;109325.25;;;18.16;87.54
48555;BME280;34336;48.270;16.716;2023-04-19T01:44:48;109325.25;;;18.16;87.54
48555;BME280;34336;48.270;16.716;2023-04-19T01:47:15;109325.25;;;18.16;87.25
48555;BME280;34336;48.270;16.716;2023-04-19T01:49:42;109325.25;;;18.16;87.30
48555;BME280;34336;48.270;16.716;2023-04-19T01:52:08;109325.25;;;18.16;86.98
48555;BME280;34336;48.270;16.716;2023-04-19T01:54:35;109325.25;;;18.16;86.91
48555;BME280;34336;48.270;16.716;2023-04-19T01:57:02;109325.25;;;18.16;86.90
48555;BME280;34336;48.270;16.716;2023-04-19T01:59:29;109325.25;;;18.16;86.68
48555;BME280;34336;48.270;16.716;2023-04-19T02:01:56;109325.25;;;18.16;86.57
48555;BME280;34336;48.270;16.716;2023-04-19T02:04:23;109325.25;;;18.16;87.19
48555;BME280;34336;48.270;16.716;2023-04-19T02:06:50;109325.25;;;18.16;87.28
48555;BME280;34336;48.270;16.716;2023-04-19T02:09:16;109325.25;;;18.16;87.71
48555;BME280;34336;48.270;16.716;2023-04-19T02:11:44;109325.25;;;18.16;87.09
48555;BME280;34336;48.270;16.716;2023-04-19T02:14:11;109325.25;;;18.16;86.79
48555;BME280;34336;48.270;16.716;2023-04-19T02:16:37;109325.25;;;18.16;86.28
48555;BME280;34336;48.270;16.716;2023-04-19T02:19:05;109325.25;;;18.16;86.42
48555;BME280;34336;48.270;16.716;2023-04-19T02:21:31;109325.25;;;18.16;86.25
48555;BME280;34336;48.270;16.716;2023-04-19T02:23:58;109325.25;;;18.16;86.14
48555;BME280;34336;48.270;16.716;2023-04-19T02:26:25;109325.25;;;18.16;86.14
48555;BME280;34336;48.270;16.716;2023-04-19T02:28:52;109325.25;;;18.16;86.16
48555;BME280;34336;48.270;16.716;2023-04-19T02:31:19;109325.25;;;18.16;86.35
48555;BME280;34336;48.270;16.716;2023-04-19T02:33:45;109325.25;;;18.16;86.04
48555;BME280;34336;48.270;16.716;2023-04-19T02:36:12;109325.25;;;18.16;85.92
48555;BME280;34336;48.270;16.716;2023-04-19T02:38:38;109325.25;;;18.16;85.75
48555;BME280;34336;48.270;16.716;2023-04-19T02:41:05;109325.25;;;18.16;85.55
48555;BME280;34336;48.270;16.716;2023-04-19T02:43:32;109325.25;;;18.16;86.03
48555;BME280;34336;48.270;16.716;2023-04-19T02:45:59;109325.25;;;18.16;86.19
48555;BME280;34336;48.270;16.716;2023-04-19T02:48:25;109325.25;;;18.16;86.50
48555;BME280;34336;48.270;16.716;2023-04-19T02:50:52;109325.25;;;18.16;86.57
48555;BME280;34336;48.270;16.716;2023-04-19T02:53:19;109325.25;;;18.16;86.48
48555;BME280;34336;48.270;16.716;2023-04-19T02:55:47;109325.25;;;18.16;86.33
48555;BME280;34336;48.270;16.716;2023-04-19T02:58:17;109325.25;;;18.16;86.62
48555;BME280;34336;48.270;16.716;2023-04-19T03:00:57;109325.25;;;18.16;86.61
48555;BME280;34336;48.270;16.716;2023-04-19T03:03:24;109325.25;;;18.16;86.90
48555;BME280;34336;48.270;16.716;2023-04-19T03:05:51;109325.25;;;18.16;87.30
48555;BME280;34336;48.270;16.716;2023-04-19T03:08:18;109325.25;;;18.16;87.46
48555;BME280;34336;48.270;16.716;2023-04-19T03:10:45;109325.25;;;18.16;87.41
48555;BME280;34336;48.270;16.716;2023-04-19T03:13:12;109325.25;;;18.16;87.54
48555;BME280;34336;48.270;16.716;2023-04-19T03:15:38;109325.25;;;18.16;88.44
48555;BME280;34336;48.270;16.716;2023-04-19T03:18:05;109325.25;;;18.16;89.34
48555;BME280;34336;48.270;16.716;2023-04-19T03:20:34;109325.25;;;18.16;90.21
48555;BME280;34336;48.270;16.716;2023-04-19T03:23:01;109325.25;;;18.16;91.21
48555;BME280;34336;48.270;16.716;2023-04-19T03:25:28;109325.25;;;18.16;92.16
48555;BME280;34336;48.270;16.716;2023-04-19T03:28:07;109325.25;;;18.16;92.85
48555;BME280;34336;48.270;16.716;2023-04-19T03:30:56;109325.25;;;18.16;94.33
48555;BME280;34336;48.270;16.716;2023-04-19T03:33:23;109325.25;;;18.16;95.78
48555;BME280;34336;48.270;16.716;2023-04-19T03:35:52;109325.25;;;18.16;97.10
48555;BME280;34336;48.270;16.716;2023-04-19T03:38:18;109325.25;;;18.16;97.87
48555;BME280;34336;48.270;16.716;2023-04-19T03:40:46;109325.25;;;18.16;98.41
48555;BME280;34336;48.270;16.716;2023-04-19T03:43:15;109325.25;;;18.16;99.02
48555;BME280;34336;48.270;16.716;2023-04-19T03:45:42;109325.25;;;18.16;100.00
48555;BME280;34336;48.270;16.716;2023-04-19T03:48:10;109325.25;;;18.16;100.00
48555;BME280;34336;48.270;16.716;2023-04-19T03:50:36;109325.25;;;18.16;100.00
48555;BME280;34336;48.270;16.716;2023-04-19T03:53:03;109325.25;;;18.16;100.00
48555;BME280;34336;48.270;16.716;2023-04-19T03:55:31;109325.25;;;18.16;100.00
48555;BME280;34336;48.270;16.716;2023-04-19T03:57:59;109325.25;;;18.16;100.00
48555;BME280;34336;48.270;16.716;2023-04-19T04:00:39;109325.25;;;18.16;100.00
48555;BME280;34336;48.270;16.716;2023-04-19T04:03:06;109325.25;;;18.16;100.00
48555;BME280;34336;48.270;16.716;2023-04-19T04:05:33;109325.25;;;18.16;100.00
48555;BME280;34336;48.270;16.716;2023-04-19T04:08:00;109325.25;;;18.16;100.00
48555;BME280;34336;48.270;16.716;2023-04-19T04:10:26;109325.25;;;18.16;100.00
48555;BME280;34336;48.270;16.716;2023-04-19T04:12:53;109325.25;;;18.16;100.00
48555;BME280;34336;48.270;16.716;2023-04-19T04:15:26;109325.25;;;18.16;100.00
48555;BME280;34336;48.270;16.716;2023-04-19T04:17:54;109325.25;;;18.16;100.00
48555;BME280;34336;48.270;16.716;2023-04-19T04:20:21;109325.25;;;18.16;100.00
48555;BME280;34336;48.270;16.716;2023-04-19T04:22:51;109325.25;;;18.16;100.00
48555;BME280;34336;48.270;16.716;2023-04-19T04:25:19;109325.25;;;18.16;100.00
48555;BME280;34336;48.270;16.716;2023-04-19T04:27:49;109325.25;;;18.16;100.00
48555;BME280;34336;48.270;16.716;2023-04-19T04:30:18;109325.25;;;18.16;100.00
48555;BME280;34336;48.270;16.716;2023-04-19T04:32:45;109325.25;;;18.16;100.00
48555;BME280;34336;48.270;16.716;2023-04-19T04:35:13;109325.25;;;18.16;100.00
48555;BME280;34336;48.270;16.716;2023-04-19T04:37:48;109325.25;;;18.16;100.00
48555;BME280;34336;48.270;16.716;2023-04-19T04:40:14;109325.25;;;18.16;100.00
48555;BME280;34336;48.270;16.716;2023-04-19T04:42:41;109325.25;;;18.16;100.00
48555;BME280;34336;48.270;16.716;2023-04-19T04:45:10;109325.25;;;18.16;99.96
48555;BME280;34336;48.270;16.716;2023-04-19T04:47:40;109325.25;;;18.16;99.88
48555;BME280;34336;48.270;16.716;2023-04-19T04:50:09;109325.25;;;18.16;99.63
48555;BME280;34336;48.270;16.716;2023-04-19T04:52:36;109325.25;;;18.16;99.19
48555;BME280;34336;48.270;16.716;2023-04-19T04:55:23;109325.25;;;18.16;100.00
48555;BME280;34336;48.270;16.716;2023-04-19T04:57:49;109325.25;;;18.16;100.00
48555;BME280;34336;48.270;16.716;2023-04-19T05:00:24;109325.25;;;18.16;100.00
48555;BME280;34336;48.270;16.716;2023-04-19T05:02:57;109325.25;;;18.16;100.00
48555;BME280;34336;48.270;16.716;2023-04-19T05:05:24;109325.25;;;18.16;100.00
48555;BME280;34336;48.270;16.716;2023-04-19T05:07:51;109325.25;;;18.16;100.00
48555;BME280;34336;48.270;16.716;2023-04-19T05:10:18;109325.25;;;18.16;100.00
48555;BME280;34336;48.270;16.716;2023-04-19T05:12:46;109325.25;;;18.16;100.00
48555;BME280;34336;48.270;16.716;2023-04-19T05:15:13;109325.25;;;18.16;100.00
48555;BME280;34336;48.270;16.716;2023-04-19T05:17:46;109325.25;;;18.16;100.00
48555;BME280;34336;48.270;16.716;2023-04-19T05:20:13;109325.25;;;18.16;100.00
48555;BME280;34336;48.270;16.716;2023-04-19T05:22:41;109325.25;;;18.16;100.00
48555;BME280;34336;48.270;16.716;2023-04-19T05:25:11;109325.25;;;18.16;100.00
48555;BME280;34336;48.270;16.716;2023-04-19T05:27:38;109325.25;;;18.16;100.00
48555;BME280;34336;48.270;16.716;2023-04-19T05:30:05;109325.25;;;18.16;100.00
48555;BME280;34336;48.270;16.716;2023-04-19T05:32:34;109325.25;;;18.16;100.00
48555;BME280;34336;48.270;16.716;2023-04-19T05:35:03;109325.25;;;18.16;100.00
48555;BME280;34336;48.270;16.716;2023-04-19T05:37:29;109325.25;;;18.16;100.00
48555;BME280;34336;48.270;16.716;2023-04-19T05:39:56;109325.25;;;18.16;100.00
48555;BME280;34336;48.270;16.716;2023-04-19T05:42:24;109325.25;;;18.16;100.00
48555;BME280;34336;48.270;16.716;2023-04-19T05:44:50;109325.25;;;18.16;100.00
48555;BME280;34336;48.270;16.716;2023-04-19T05:47:17;109325.25;;;18.16;100.00
48555;BME280;34336;48.270;16.716;2023-04-19T05:50:10;109325.25;;;18.16;100.00
48555;BME280;34336;48.270;16.716;2023-04-19T05:52:45;109325.25;;;18.16;100.00
48555;BME280;34336;48.270;16.716;2023-04-19T05:55:12;109325.25;;;18.16;100.00
48555;BME280;34336;48.270;16.716;2023-04-19T05:57:42;109325.25;;;18.16;100.00
48555;BME280;34336;48.270;16.716;2023-04-19T06:00:09;109325.25;;;18.16;100.00
48555;BME280;34336;48.270;16.716;2023-04-19T06:02:38;109325.25;;;18.16;100.00
48555;BME280;34336;48.270;16.716;2023-04-19T06:05:09;109325.25;;;18.16;100.00
48555;BME280;34336;48.270;16.716;2023-04-19T06:07:37;109325.25;;;18.16;100.00
48555;BME280;34336;48.270;16.716;2023-04-19T06:10:12;109325.25;;;18.16;100.00
48555;BME280;34336;48.270;16.716;2023-04-19T06:12:39;109325.25;;;18.16;100.00
48555;BME280;34336;48.270;16.716;2023-04-19T06:15:06;109325.25;;;18.16;100.00
48555;BME280;34336;48.270;16.716;2023-04-19T06:17:32;109325.25;;;18.16;100.00
48555;BME280;34336;48.270;16.716;2023-04-19T06:19:59;109325.25;;;18.16;100.00
48555;BME280;34336;48.270;16.716;2023-04-19T06:22:26;109325.25;;;18.16;100.00
48555;BME280;34336;48.270;16.716;2023-04-19T06:24:52;109325.25;;;18.16;100.00
48555;BME280;34336;48.270;16.716;2023-04-19T06:27:19;109325.25;;;18.16;100.00
48555;BME280;34336;48.270;16.716;2023-04-19T06:29:46;109325.25;;;18.16;100.00
48555;BME280;34336;48.270;16.716;2023-04-19T06:32:14;109325.25;;;18.16;100.00
48555;BME280;34336;48.270;16.716;2023-04-19T06:34:41;109325.25;;;18.16;100.00
48555;BME280;34336;48.270;16.716;2023-04-19T06:37:07;109325.25;;;18.16;100.00
48555;BME280;34336;48.270;16.716;2023-04-19T06:39:34;109325.25;;;18.16;100.00
48555;BME280;34336;48.270;16.716;2023-04-19T06:42:00;109325.25;;;18.16;100.00
48555;BME280;34336;48.270;16.716;2023-04-19T06:44:28;109325.25;;;18.16;100.00
48555;BME280;34336;48.270;16.716;2023-04-19T06:46:54;109325.25;;;18.16;100.00
48555;BME280;34336;48.270;16.716;2023-04-19T06:49:21;109325.25;;;18.16;100.00
48555;BME280;34336;48.270;16.716;2023-04-19T06:51:48;109325.25;;;18.16;100.00
48555;BME280;34336;48.270;16.716;2023-04-19T06:54:15;109325.25;;;18.16;100.00
48555;BME280;34336;48.270;16.716;2023-04-19T06:56:43;109325.25;;;18.16;100.00
48555;BME280;34336;48.270;16.716;2023-04-19T06:59:13;109325.25;;;18.16;100.00
48555;BME280;34336;48.270;16.716;2023-04-19T07:01:42;109325.25;;;18.16;100.00
48555;BME280;34336;48.270;16.716;2023-04-19T07:04:08;109325.25;;;18.16;100.00
48555;BME280;34336;48.270;16.716;2023-04-19T07:06:36;109325.25;;;18.16;100.00
48555;BME280;34336;48.270;16.716;2023-04-19T07:09:03;109325.25;;;18.16;100.00
48555;BME280;34336;48.270;16.716;2023-04-19T07:11:31;109325.25;;;18.16;100.00
48555;BME280;34336;48.270;16.716;2023-04-19T07:13:58;109325.25;;;18.16;100.00
48555;BME280;34336;48.270;16.716;2023-04-19T07:16:27;109325.25;;;18.16;100.00
48555;BME280;34336;48.270;16.716;2023-04-19T07:18:54;109325.25;;;18.16;100.00
48555;BME280;34336;48.270;16.716;2023-04-19T07:21:21;109325.25;;;18.16;100.00
48555;BME280;34336;48.270;16.716;2023-04-19T07:23:48;109325.25;;;18.16;100.00
48555;BME280;34336;48.270;16.716;2023-04-19T07:26:14;109325.25;;;18.16;100.00
48555;BME280;34336;48.270;16.716;2023-04-19T07:28:41;109325.25;;;18.16;100.00
48555;BME280;34336;48.270;16.716;2023-04-19T07:31:13;109325.25;;;18.16;100.00
48555;BME280;34336;48.270;16.716;2023-04-19T07:33:39;109325.25;;;18.16;100.00
48555;BME280;34336;48.270;16.716;2023-04-19T07:36:06;109325.25;;;18.16;100.00
48555;BME280;34336;48.270;16.716;2023-04-19T07:38:33;109325.25;;;18.16;100.00
48555;BME280;34336;48.270;16.716;2023-04-19T07:41:00;109325.25;;;18.16;100.00
48555;BME280;34336;48.270;16.716;2023-04-19T07:43:28;109325.25;;;18.16;100.00
48555;BME280;34336;48.270;16.716;2023-04-19T07:45:54;109325.25;;;18.16;100.00
48555;BME280;34336;48.270;16.716;2023-04-19T07:48:21;109325.25;;;18.16;100.00
48555;BME280;34336;48.270;16.716;2023-04-19T07:50:48;109325.25;;;18.16;100.00
48555;BME280;34336;48.270;16.716;2023-04-19T07:53:15;109325.25;;;18.16;100.00
48555;BME280;34336;48.270;16.716;2023-04-19T07:55:41;109325.25;;;18.16;100.00
48555;BME280;34336;48.270;16.716;2023-04-19T07:58:08;109325.25;;;18.16;100.00
48555;BME280;34336;48.270;16.716;2023-04-19T08:00:35;109325.25;;;18.16;100.00
48555;BME280;34336;48.270;16.716;2023-04-19T08:03:03;109325.25;;;18.16;100.00
48555;BME280;34336;48.270;16.716;2023-04-19T08:05:30;109325.25;;;18.16;100.00
48555;BME280;34336;48.270;16.716;2023-04-19T08:07:57;109325.25;;;18.16;100.00
48555;BME280;34336;48.270;16.716;2023-04-19T08:10:23;109325.25;;;18.16;100.00
48555;BME280;34336;48.270;16.716;2023-04-19T08:12:52;109325.25;;;18.16;100.00
48555;BME280;34336;48.270;16.716;2023-04-19T08:15:34;109325.25;;;18.16;100.00
48555;BME280;34336;48.270;16.716;2023-04-19T08:18:04;109325.25;;;18.16;100.00
48555;BME280;34336;48.270;16.716;2023-04-19T08:20:31;109325.25;;;18.16;100.00
48555;BME280;34336;48.270;16.716;2023-04-19T08:22:58;109325.25;;;18.16;100.00
48555;BME280;34336;48.270;16.716;2023-04-19T08:25:36;109325.25;;;18.16;100.00
48555;BME280;34336;48.270;16.716;2023-04-19T08:28:03;109325.25;;;18.16;100.00
48555;BME280;34336;48.270;16.716;2023-04-19T08:30:29;109325.25;;;18.16;100.00
48555;BME280;34336;48.270;16.716;2023-04-19T08:32:56;109325.25;;;18.16;100.00
48555;BME280;34336;48.270;16.716;2023-04-19T08:35:23;109325.25;;;18.16;100.00
48555;BME280;34336;48.270;16.716;2023-04-19T08:37:50;109325.25;;;18.16;100.00
48555;BME280;34336;48.270;16.716;2023-04-19T08:40:17;109325.25;;;18.16;100.00
48555;BME280;34336;48.270;16.716;2023-04-19T08:42:44;109325.25;;;18.16;100.00
48555;BME280;34336;48.270;16.716;2023-04-19T08:45:10;109325.25;;;18.16;100.00
48555;BME280;34336;48.270;16.716;2023-04-19T08:47:53;109325.25;;;18.16;100.00
48555;BME280;34336;48.270;16.716;2023-04-19T08:50:27;109325.25;;;18.16;100.00
48555;BME280;34336;48.270;16.716;2023-04-19T08:53:03;109325.25;;;18.16;100.00
48555;BME280;34336;48.270;16.716;2023-04-19T08:55:49;109325.25;;;18.16;100.00
48555;BME280;34336;48.270;16.716;2023-04-19T08:58:37;109325.25;;;18.16;100.00
48555;BME280;34336;48.270;16.716;2023-04-19T09:01:23;109325.25;;;18.16;100.00
48555;BME280;34336;48.270;16.716;2023-04-19T09:04:02;109325.25;;;18.16;100.00
48555;BME280;34336;48.270;16.716;2023-04-19T09:06:51;109325.25;;;18.16;100.00
48555;BME280;34336;48.270;16.716;2023-04-19T09:09:21;109325.25;;;18.16;100.00
48555;BME280;34336;48.270;16.716;2023-04-19T09:11:51;109325.25;;;18.16;100.00
48555;BME280;34336;48.270;16.716;2023-04-19T09:14:18;109325.25;;;18.16;100.00
48555;BME280;34336;48.270;16.716;2023-04-19T09:16:45;109325.25;;;18.16;100.00
48555;BME280;34336;48.270;16.716;2023-04-19T09:19:12;109325.25;;;18.16;100.00
48555;BME280;34336;48.270;16.716;2023-04-19T09:21:49;109325.25;;;18.16;100.00
48555;BME280;34336;48.270;16.716;2023-04-19T09:24:18;109325.25;;;18.16;99.45
48555;BME280;34336;48.270;16.716;2023-04-19T09:26:53;109325.25;;;18.16;98.03
48555;BME280;34336;48.270;16.716;2023-04-19T09:29:21;109325.25;;;18.16;94.79
48555;BME280;34336;48.270;16.716;2023-04-19T09:31:58;109325.25;;;18.16;92.54
48555;BME280;34336;48.270;16.716;2023-04-19T09:34:25;109325.25;;;18.16;92.09
48555;BME280;34336;48.270;16.716;2023-04-19T09:36:55;109325.25;;;18.16;92.45
48555;BME280;34336;48.270;16.716;2023-04-19T09:39:37;109325.25;;;18.16;92.35
48555;BME280;34336;48.270;16.716;2023-04-19T09:42:03;109325.25;;;18.16;93.01
48555;BME280;34336;48.270;16.716;2023-04-19T09:44:30;109325.25;;;18.16;93.04
48555;BME280;34336;48.270;16.716;2023-04-19T09:47:22;109325.25;;;18.16;92.33
48555;BME280;34336;48.270;16.716;2023-04-19T09:52:48;109325.25;;;18.16;88.57
48555;BME280;34336;48.270;16.716;2023-04-19T09:55:15;109325.25;;;18.16;88.29
48555;BME280;34336;48.270;16.716;2023-04-19T09:57:53;109325.25;;;18.16;87.74
48555;BME280;34336;48.270;16.716;2023-04-19T10:00:21;109325.25;;;18.16;87.66
48555;BME280;34336;48.270;16.716;2023-04-19T10:02:50;109325.25;;;18.16;90.31
48555;BME280;34336;48.270;16.716;2023-04-19T10:05:20;109325.25;;;18.16;90.61
48555;BME280;34336;48.270;16.716;2023-04-19T10:07:48;109325.25;;;18.16;88.25
48555;BME280;34336;48.270;16.716;2023-04-19T10:10:15;109325.25;;;18.16;86.01
48555;BME280;34336;48.270;16.716;2023-04-19T10:12:50;109325.25;;;18.16;83.21
48555;BME280;34336;48.270;16.716;2023-04-19T10:15:21;109325.25;;;18.16;82.97
48555;BME280;34336;48.270;16.716;2023-04-19T10:17:48;109325.25;;;18.16;82.71
48555;BME280;34336;48.270;16.716;2023-04-19T10:20:17;109325.25;;;18.16;81.74
48555;BME280;34336;48.270;16.716;2023-04-19T10:22:46;109325.25;;;18.16;81.84
48555;BME280;34336;48.270;16.716;2023-04-19T10:25:13;109325.25;;;18.16;84.70
48555;BME280;34336;48.270;16.716;2023-04-19T10:27:43;109325.25;;;18.16;82.97
48555;BME280;34336;48.270;16.716;2023-04-19T10:30:15;109325.25;;;18.16;85.85
48555;BME280;34336;48.270;16.716;2023-04-19T10:32:44;109325.25;;;18.16;84.66
48555;BME280;34336;48.270;16.716;2023-04-19T10:43:14;109325.25;;;18.16;79.93
48555;BME280;34336;48.270;16.716;2023-04-19T10:45:43;109325.25;;;18.16;79.80
48555;BME280;34336;48.270;16.716;2023-04-19T10:56:10;109325.25;;;18.16;76.25
48555;BME280;34336;48.270;16.716;2023-04-19T11:06:55;109325.25;;;18.16;72.70
48555;BME280;34336;48.270;16.716;2023-04-19T11:11:52;109325.25;;;18.16;72.81
48555;BME280;34336;48.270;16.716;2023-04-19T11:14:19;109325.25;;;18.16;73.12
48555;BME280;34336;48.270;16.716;2023-04-19T11:16:46;109325.25;;;18.16;75.67
48555;BME280;34336;48.270;16.716;2023-04-19T11:19:16;109325.25;;;18.16;75.71
48555;BME280;34336;48.270;16.716;2023-04-19T11:21:44;109325.25;;;18.16;76.03
48555;BME280;34336;48.270;16.716;2023-04-19T11:24:11;109325.25;;;18.16;76.74
48555;BME280;34336;48.270;16.716;2023-04-19T11:26:37;109325.25;;;18.16;78.88
48555;BME280;34336;48.270;16.716;2023-04-19T11:29:04;109325.25;;;18.16;76.83
48555;BME280;34336;48.270;16.716;2023-04-19T11:31:34;109325.25;;;18.16;77.38
48555;BME280;34336;48.270;16.716;2023-04-19T11:34:01;109325.25;;;18.16;76.58
48555;BME280;34336;48.270;16.716;2023-04-19T11:36:29;109325.25;;;18.16;75.19
48555;BME280;34336;48.270;16.716;2023-04-19T11:38:57;109325.25;;;18.16;71.03
48555;BME280;34336;48.270;16.716;2023-04-19T11:41:24;109325.25;;;18.16;71.02
48555;BME280;34336;48.270;16.716;2023-04-19T11:43:50;109325.25;;;18.16;70.53
48555;BME280;34336;48.270;16.716;2023-04-19T11:46:17;109325.25;;;18.16;72.97
48555;BME280;34336;48.270;16.716;2023-04-19T11:48:53;109325.25;;;18.16;71.78
48555;BME280;34336;48.270;16.716;2023-04-19T11:51:20;109325.25;;;18.16;69.19
48555;BME280;34336;48.270;16.716;2023-04-19T11:53:46;109325.25;;;18.16;71.35
48555;BME280;34336;48.270;16.716;2023-04-19T11:56:13;109325.25;;;18.16;68.92
48555;BME280;34336;48.270;16.716;2023-04-19T11:58:42;109325.25;;;18.16;65.94
48555;BME280;34336;48.270;16.716;2023-04-19T12:01:14;109325.25;;;18.16;68.13
48555;BME280;34336;48.270;16.716;2023-04-19T12:06:12;109325.25;;;18.16;66.07
48555;BME280;34336;48.270;16.716;2023-04-19T12:08:42;109325.25;;;18.16;63.32
48555;BME280;34336;48.270;16.716;2023-04-19T12:11:09;109325.25;;;18.16;65.25
48555;BME280;34336;48.270;16.716;2023-04-19T12:13:36;109325.25;;;18.16;63.10
48555;BME280;34336;48.270;16.716;2023-04-19T12:16:03;109325.25;;;18.16;63.61
48555;BME280;34336;48.270;16.716;2023-04-19T12:18:49;109325.25;;;18.16;64.51
48555;BME280;34336;48.270;16.716;2023-04-19T12:21:25;109325.25;;;18.16;62.15
48555;BME280;34336;48.270;16.716;2023-04-19T12:23:53;109325.25;;;18.16;63.29
48555;BME280;34336;48.270;16.716;2023-04-19T12:26:20;109325.25;;;18.16;66.33
48555;BME280;34336;48.270;16.716;2023-04-19T12:28:46;109325.25;;;18.16;67.11
48555;BME280;34336;48.270;16.716;2023-04-19T12:31:13;109325.25;;;18.16;67.29
48555;BME280;34336;48.270;16.716;2023-04-19T12:33:40;109325.25;;;18.16;65.06
48555;BME280;34336;48.270;16.716;2023-04-19T12:36:06;109325.25;;;18.16;65.35
48555;BME280;34336;48.270;16.716;2023-04-19T12:38:33;109325.25;;;18.16;63.80
48555;BME280;34336;48.270;16.716;2023-04-19T12:41:00;109325.25;;;18.16;62.43
48555;BME280;34336;48.270;16.716;2023-04-19T12:43:27;109325.25;;;18.16;63.96
48555;BME280;34336;48.270;16.716;2023-04-19T12:45:55;109325.25;;;18.16;63.83
48555;BME280;34336;48.270;16.716;2023-04-19T12:48:22;109325.25;;;18.16;63.77
48555;BME280;34336;48.270;16.716;2023-04-19T12:50:48;109325.25;;;18.16;63.61
48555;BME280;34336;48.270;16.716;2023-04-19T12:53:15;109325.25;;;18.16;64.24
48555;BME280;34336;48.270;16.716;2023-04-19T12:55:42;109325.25;;;18.16;64.33
48555;BME280;34336;48.270;16.716;2023-04-19T12:58:13;109325.25;;;18.16;64.43
48555;BME280;34336;48.270;16.716;2023-04-19T13:00:40;109325.25;;;18.16;63.69
48555;BME280;34336;48.270;16.716;2023-04-19T13:03:07;109325.25;;;18.16;62.53
48555;BME280;34336;48.270;16.716;2023-04-19T13:05:34;109325.25;;;18.16;63.25
48555;BME280;34336;48.270;16.716;2023-04-19T13:08:00;109325.25;;;18.16;62.74
48555;BME280;34336;48.270;16.716;2023-04-19T13:10:27;109325.25;;;18.16;63.59
48555;BME280;34336;48.270;16.716;2023-04-19T13:12:54;109325.25;;;18.16;63.58
48555;BME280;34336;48.270;16.716;2023-04-19T13:15:21;109325.25;;;18.16;64.61